Impacts METAR Board
IDs:

KCLT - Charlotte/Douglas In, NC, US

Updated at: 2100 UTC 01 Feb 2023
Potential Impact None Slight Moderate High
Time 01/09Z 01/10Z 01/11Z 01/12Z 01/13Z 01/14Z 01/15Z 01/16Z 01/17Z 01/18Z 01/19Z 01/20Z 01/21Z
Temp59 59 59 59 58 48 46 46 46 45 46 45 45
Dewpt57 57 57 57 57 47 44 43 43 43 42 41 41
Altim30.05 30.04 30.06 30.09 30.11 30.15 30.19 30.22 30.23 30.21 30.19 30.19 30.19
VIS8 10 10 10 9 2.5 2.5 4 2.5 4 10 10 5
CIG7 7 7 8 8 2 4 5 5 5 10 9 9
CoverOVCOVCOVCOVCOVCOVCOVCOVCOVCOVCOVCOVCOVC
FltCatIFRIFRIFRIFRIFRLIFRLIFRIFRIFRIFRMVFRIFRIFR
WX-RA-RA-RA----BRBRBRBRBR----BR
WDir25022023030003070504060406060
WSpd4 5 4 3 0 13 10 13 8 9 6 8 7
WGst-- -- -- -- -- -- -- 17 -- -- -- -- --
Raw hourly METARs
KCLT 010852Z 25004KT 8SM -RA OVC007 15/14 A3005 RMK RAE0757B38 SLP171 P0000 60008 T01500139 55007
KCLT 010952Z 22005KT 10SM -RA OVC007 15/14 A3004 RMK RAE07B13 CIG 003V010 SLP167 P0001 T01500139
KCLT 011052Z 23004KT 10SM -RA BKN007 OVC085 15/14 A3006 RMK RAE0954B26 SLP175 P0000 T01500139
KCLT 011152Z 30003KT 10SM OVC008 15/14 A3009 RMK RAE1053 CIG 005V012 SLP185 P0000 60009 70011 T01500139 10150 20144 51017
KCLT 011252Z 00000KT 9SM BKN008 OVC120 14/14 A3011 RMK SLP191 T01440139
KCLT 011352Z 03013KT 2 1/2SM BR OVC002 09/08 A3015 RMK SLP209 T00890083
KCLT 011452Z 07010KT 2 1/2SM BR BKN004 OVC008 08/07 A3019 RMK SLP220 T00780067 53033
KCLT 011552Z 05013G17KT 4SM BR BKN005 OVC012 08/06 A3022 RMK SLP233 T00780061
KCLT 011701Z 04008KT 2 1/2SM BR BKN005 OVC011 08/06 A3023 RMK T00780061
KCLT 011752Z 06009KT 4SM BR BKN005 BKN010 OVC017 07/06 A3021 RMK SLP228 T00720061 10150 20072 50008
KCLT 011852Z 04006KT 10SM BKN010 OVC019 08/06 A3019 RMK SLP223 T00780056
KCLT 011952Z 06008KT 10SM BKN009 OVC015 07/05 A3019 RMK SLP221 T00720050
KCLT 012052Z 06007KT 5SM BR BKN009 OVC017 07/05 A3019 RMK SLP222 T00720050 55006



Page loaded:  21:57 UTC  |   01:57 PM Pacific  |   02:57 PM Mountain  |   03:57 PM Central  |   04:57 PM Eastern

 

ADVISORIES

FORECASTS

FORECASTS

OBSERVATIONS

USER TOOLS

ABOUT US